Time;durP1;ratioP1;P1;durP2;ratioP2;P2;SDS_P1;SDS_P2;PMS_P1;PMS_P2;Temp;Humidity;BMP_temperature;BMP_pressure;BME280_temperature;BME280_humidity;BME280_pressure;Samples;Min_cycle;Max_cycle;Signal;HPM_P1;HPM_P2
2022/07/18 00:01:59;;;;;;;2.15;0.70;;;;;;;22.69;26.93;99491.94;4487190;32;20087;-79
2022/07/18 00:04:25;;;;;;;3.62;1.10;;;;;;;22.58;27.10;99488.44;4472811;32;20128;-79
2022/07/18 00:06:52;;;;;;;4.75;1.00;;;;;;;22.18;26.33;99491.25;4472779;32;20288;-80
2022/07/18 00:09:18;;;;;;;3.85;0.80;;;;;;;22.21;26.77;99484.75;4487106;32;20122;-79
2022/07/18 00:11:44;;;;;;;4.28;0.93;;;;;;;22.34;26.31;99485.34;4472876;32;20092;-80
2022/07/18 00:14:10;;;;;;;3.37;0.80;;;;;;;22.41;25.92;99485.63;4487214;32;20140;-80
2022/07/18 00:16:36;;;;;;;3.87;0.70;;;;;;;22.31;26.27;99497.22;4472960;32;20101;-80
2022/07/18 00:19:02;;;;;;;4.47;0.75;;;;;;;22.41;25.60;99504.41;4487066;32;20092;-79
2022/07/18 00:21:28;;;;;;;3.00;0.90;;;;;;;22.47;25.44;99495.81;4472991;32;20502;-79
2022/07/18 00:23:53;;;;;;;3.08;0.77;;;;;;;22.37;25.72;99502.03;4486907;32;20124;-79
2022/07/18 00:26:19;;;;;;;2.53;0.80;;;;;;;22.38;25.83;99502.88;4486926;32;20134;-79
2022/07/18 00:28:44;;;;;;;2.58;0.80;;;;;;;22.40;25.81;99494.69;4486917;32;20147;-79
2022/07/18 00:31:10;;;;;;;3.65;0.88;;;;;;;22.39;25.87;99491.16;4486856;32;20088;-80
2022/07/18 00:33:35;;;;;;;2.30;0.80;;;;;;;22.26;25.93;99496.78;4486792;32;20111;-80
2022/07/18 00:36:01;;;;;;;3.53;0.80;;;;;;;22.32;26.07;99498.91;4472631;32;20174;-79
2022/07/18 00:38:26;;;;;;;4.75;0.85;;;;;;;22.13;26.33;99496.19;4472665;32;20485;-79
2022/07/18 00:40:52;;;;;;;3.70;0.80;;;;;;;22.35;26.05;99498.63;4486860;32;20097;-80
2022/07/18 00:43:17;;;;;;;2.55;0.80;;;;;;;21.97;26.25;99508.31;4486811;32;20080;-80
2022/07/18 00:45:47;;;;;;;3.12;0.80;;;;;;;22.14;26.06;99509.47;4486403;32;20088;-80
2022/07/18 00:48:13;;;;;;;2.42;0.88;;;;;;;21.98;26.31;99507.34;4486834;32;20089;-79
2022/07/18 00:50:39;;;;;;;4.00;1.05;;;;;;;22.18;26.06;99499.31;4486708;32;20178;-80
2022/07/18 00:53:05;;;;;;;3.75;0.90;;;;;;;22.16;26.21;99496.75;4486638;32;20572;-80
2022/07/18 00:55:31;;;;;;;4.12;1.20;;;;;;;22.13;26.40;99506.91;4472434;32;20131;-80
2022/07/18 00:57:57;;;;;;;3.22;0.90;;;;;;;22.22;26.33;99506.09;4486695;32;20168;-80
2022/07/18 01:03:06;;;;;;;4.97;1.00;;;;;;;22.22;26.48;99508.78;4474574;32;20470;-80
2022/07/18 01:05:32;;;;;;;3.58;1.00;;;;;;;22.36;26.29;99508.38;4486523;32;20112;-79
2022/07/18 01:07:57;;;;;;;2.45;0.93;;;;;;;22.13;26.68;99502.41;4486752;32;20084;-79
2022/07/18 01:10:23;;;;;;;2.75;0.85;;;;;;;22.18;26.71;99502.84;4472477;32;20114;-79
2022/07/18 01:12:49;;;;;;;2.45;0.80;;;;;;;22.20;26.95;99508.06;4486625;32;20367;-79
2022/07/18 01:15:14;;;;;;;1.87;0.90;;;;;;;22.17;26.87;99501.16;4486389;32;20096;-79
2022/07/18 01:17:40;;;;;;;4.07;1.00;;;;;;;22.07;27.03;99502.12;4486237;32;20380;-79
2022/07/18 01:20:06;;;;;;;4.03;0.80;;;;;;;22.13;27.07;99496.19;4486172;32;20116;-79
2022/07/18 01:22:32;;;;;;;3.53;1.00;;;;;;;22.19;27.16;99499.19;4471996;32;20106;-79
2022/07/18 01:24:57;;;;;;;3.70;0.90;;;;;;;22.19;26.88;99504.53;4471975;32;20107;-80
2022/07/18 01:27:23;;;;;;;2.83;0.90;;;;;;;22.07;27.14;99502.12;4486193;32;20114;-80
2022/07/18 01:29:50;;;;;;;2.55;0.90;;;;;;;22.12;27.16;99497.19;4471767;32;20435;-79
2022/07/18 01:32:15;;;;;;;2.42;0.85;;;;;;;22.05;27.68;99504.09;4486100;32;20462;-79
2022/07/18 01:34:42;;;;;;;4.18;0.98;;;;;;;21.91;27.54;99508.03;4471730;32;20130;-79
2022/07/18 01:37:08;;;;;;;3.70;1.00;;;;;;;22.05;27.72;99509.47;4472005;32;20136;-79
2022/07/18 01:39:34;;;;;;;3.70;1.08;;;;;;;22.03;27.67;99514.13;4472115;32;20089;-78
2022/07/18 01:42:01;;;;;;;3.37;1.08;;;;;;;22.01;27.84;99508.06;4471993;32;20435;-79
2022/07/18 01:44:28;;;;;;;4.18;1.02;;;;;;;21.99;27.87;99506.34;4486253;32;20516;-79
2022/07/18 01:46:53;;;;;;;2.50;0.82;;;;;;;22.01;28.13;99505.37;4472081;32;20130;-80
2022/07/18 01:49:19;;;;;;;4.07;1.02;;;;;;;21.86;28.62;99512.97;4471713;32;20112;-80
2022/07/18 01:51:49;;;;;;;4.20;1.25;;;;;;;21.93;28.40;99504.22;4486129;32;20076;-79
2022/07/18 01:54:14;;;;;;;4.10;1.12;;;;;;;22.01;28.26;99508.88;4471458;32;20135;-79
2022/07/18 01:56:40;;;;;;;3.47;0.93;;;;;;;21.94;28.41;99511.28;4486263;32;20081;-79
2022/07/18 01:59:06;;;;;;;5.25;1.17;;;;;;;21.95;28.47;99510.28;4488319;32;20372;-79
2022/07/18 02:01:31;;;;;;;3.35;1.15;;;;;;;21.78;28.75;99509.12;4488118;32;20218;-79
2022/07/18 02:03:57;;;;;;;5.53;1.10;;;;;;;21.86;28.74;99504.91;4488229;32;20104;-79
2022/07/18 02:06:22;;;;;;;3.92;1.17;;;;;;;21.70;29.20;99506.28;4474047;32;20126;-79
2022/07/18 02:08:48;;;;;;;3.25;0.93;;;;;;;21.78;29.09;99511.81;4488089;32;20115;-79
2022/07/18 02:11:13;;;;;;;4.18;1.00;;;;;;;21.84;29.40;99507.72;4473978;32;20098;-79
2022/07/18 02:13:39;;;;;;;3.45;1.00;;;;;;;21.84;29.48;99507.72;4487973;32;20088;-79
2022/07/18 02:16:05;;;;;;;3.08;1.00;;;;;;;21.86;29.72;99503.06;4487858;32;20080;-79
2022/07/18 02:18:32;;;;;;;5.05;1.23;;;;;;;21.74;29.59;99510.38;4473617;32;20107;-79
2022/07/18 02:21:01;;;;;;;2.92;1.00;;;;;;;21.79;29.53;99500.09;4470876;32;20096;-79
2022/07/18 02:23:27;;;;;;;3.33;1.00;;;;;;;21.81;29.91;99508.03;4472155;32;20101;-79
2022/07/18 02:25:54;;;;;;;4.65;1.10;;;;;;;21.82;29.97;99514.22;4470943;32;20391;-79
2022/07/18 02:28:19;;;;;;;2.62;1.00;;;;;;;21.77;29.94;99515.50;4472197;32;20448;-79
2022/07/18 02:30:45;;;;;;;3.78;1.20;;;;;;;21.77;30.15;99515.50;4470976;32;20089;-79
2022/07/18 02:33:10;;;;;;;4.35;1.00;;;;;;;21.78;30.17;99516.34;4471848;32;20135;-79
2022/07/18 02:35:36;;;;;;;3.87;1.10;;;;;;;21.74;30.41;99517.59;4470876;32;20096;-79
2022/07/18 02:38:02;;;;;;;3.37;1.10;;;;;;;21.77;30.43;99517.34;4472072;32;20138;-79
2022/07/18 02:40:27;;;;;;;3.60;0.93;;;;;;;21.67;30.34;99519.13;4472042;32;20084;-79
2022/07/18 02:42:52;;;;;;;4.90;1.40;;;;;;;21.55;30.15;99515.69;4470815;32;20364;-79
2022/07/18 02:45:18;;;;;;;5.12;1.00;;;;;;;21.64;30.02;99520.25;4471972;32;20119;-79
2022/07/18 02:47:44;;;;;;;3.75;0.98;;;;;;;21.62;30.17;99516.03;4470922;32;20326;-79
2022/07/18 02:50:11;;;;;;;4.53;1.10;;;;;;;21.65;30.29;99518.41;4470797;32;20093;-79
2022/07/18 02:52:38;;;;;;;;;;;;;;;21.66;30.71;99506.72;4472384;32;20116;-79
2022/07/18 02:55:04;;;;;;;2.55;0.95;;;;;;;21.73;30.45;99508.72;4471985;32;19996;-79
2022/07/18 02:57:29;;;;;;;4.18;1.20;;;;;;;21.66;30.73;99517.44;4471867;32;20084;-79
2022/07/18 02:59:55;;;;;;;4.93;1.10;;;;;;;21.62;30.86;99516.84;4471843;32;20116;-79
2022/07/18 03:02:20;;;;;;;3.37;1.00;;;;;;;21.60;31.08;99519.66;4470629;32;20162;-79
2022/07/18 03:04:46;;;;;;;4.57;1.23;;;;;;;21.58;31.24;99515.44;4471748;32;20119;-79
2022/07/18 03:07:11;;;;;;;3.47;1.12;;;;;;;21.59;31.04;99519.81;4471954;32;20107;-79
2022/07/18 03:09:37;;;;;;;8.05;1.20;;;;;;;21.55;31.20;99524.59;4471635;32;20413;-79
2022/07/18 03:12:03;;;;;;;3.05;0.98;;;;;;;21.55;31.22;99521.06;4472218;32;20119;-79
2022/07/18 03:14:28;;;;;;;4.68;1.12;;;;;;;21.54;31.20;99522.91;4472020;32;20109;-79
2022/07/18 03:16:54;;;;;;;3.70;1.00;;;;;;;21.54;31.15;99524.75;4451412;32;20416;-78
2022/07/18 03:19:20;;;;;;;4.72;1.10;;;;;;;21.51;31.13;99525.00;4473498;31;20089;-78
2022/07/18 03:21:46;;;;;;;4.97;1.10;;;;;;;21.55;31.06;99524.59;4485157;32;20153;-76
2022/07/18 03:24:11;;;;;;;4.78;1.35;;;;;;;21.61;31.23;99520.50;4469424;32;20108;-76
2022/07/18 03:26:37;;;;;;;3.30;1.10;;;;;;;21.64;31.42;99511.38;4485545;32;20110;-78
2022/07/18 03:29:03;;;;;;;3.80;1.50;;;;;;;21.70;31.68;99513.50;4487272;32;20416;-79
2022/07/18 03:31:28;;;;;;;4.45;1.00;;;;;;;21.74;31.78;99515.75;4485008;32;20119;-78
2022/07/18 03:33:53;;;;;;;4.40;1.20;;;;;;;21.76;32.02;99519.16;4485284;32;20124;-78
2022/07/18 03:36:19;;;;;;;4.43;1.20;;;;;;;21.81;31.84;99518.75;4473022;32;20088;-80
2022/07/18 03:38:45;;;;;;;3.97;1.17;;;;;;;21.86;31.43;99527.22;4488653;31;20116;-80
2022/07/18 03:41:11;;;;;;;4.43;1.15;;;;;;;21.86;31.04;99526.38;4487106;32;20149;-80
2022/07/18 03:43:37;;;;;;;7.30;1.40;;;;;;;21.85;31.13;99525.53;4473239;32;20156;-80
2022/07/18 03:46:03;;;;;;;5.22;1.10;;;;;;;21.91;30.51;99530.34;4473318;32;20110;-80
2022/07/18 03:48:29;;;;;;;3.92;1.20;;;;;;;22.02;30.43;99525.84;4493955;31;20169;-79
2022/07/18 03:50:54;;;;;;;4.70;1.60;;;;;;;22.19;30.53;99528.69;4502689;31;20364;-79
2022/07/18 03:53:20;;;;;;;3.92;1.17;;;;;;;22.19;30.39;99531.38;4501677;31;20126;-80
2022/07/18 03:55:45;;;;;;;3.97;1.12;;;;;;;22.04;30.75;99537.28;4502876;31;20091;-79
2022/07/18 03:58:10;;;;;;;5.20;1.10;;;;;;;22.01;30.82;99541.09;4488245;31;20412;-80
2022/07/18 04:00:36;;;;;;;3.20;1.05;;;;;;;22.26;30.49;99541.59;4502906;31;20096;-80
2022/07/18 04:03:02;;;;;;;4.97;1.08;;;;;;;22.32;30.33;99544.53;4502921;31;20465;-80
2022/07/18 04:05:27;;;;;;;6.37;1.08;;;;;;;22.32;30.49;99541.84;4488538;31;20367;-80
2022/07/18 04:07:53;;;;;;;6.18;1.20;;;;;;;22.39;30.16;99547.53;4488460;31;20132;-80
2022/07/18 04:10:18;;;;;;;3.62;1.20;;;;;;;22.41;30.32;99539.31;4502778;31;20123;-80
2022/07/18 04:12:48;;;;;;;3.85;1.10;;;;;;;22.27;30.64;99546.81;4488493;31;20096;-79
2022/07/18 04:15:15;;;;;;;3.85;1.20;;;;;;;22.57;30.30;99543.13;4502986;31;20091;-80
2022/07/18 04:17:40;;;;;;;3.53;1.10;;;;;;;22.78;29.90;99536.75;4502857;31;20147;-80
2022/07/18 04:20:06;;;;;;;5.20;1.23;;;;;;;22.93;29.45;99535.31;4501928;31;20492;-80
2022/07/18 04:22:32;;;;;;;6.93;1.30;;;;;;;22.98;29.65;99540.25;4502898;31;20519;-79
2022/07/18 04:24:57;;;;;;;6.95;1.48;;;;;;;23.31;28.86;99543.44;4502806;31;20091;-79
2022/07/18 04:27:22;;;;;;;5.85;1.50;;;;;;;23.31;28.96;99538.06;4502806;31;20119;-79
2022/07/18 04:29:48;;;;;;;5.55;1.33;;;;;;;23.33;29.28;99546.81;4502761;31;20470;-79
2022/07/18 04:32:14;;;;;;;6.45;1.20;;;;;;;23.54;29.06;99547.44;4502676;31;20087;-78
2022/07/18 04:34:39;;;;;;;4.57;1.27;;;;;;;23.64;28.66;99539.34;4488248;31;20105;-79
2022/07/18 04:37:05;;;;;;;3.22;1.05;;;;;;;23.78;28.62;99545.19;4488287;31;20080;-79
2022/07/18 04:39:30;;;;;;;6.00;1.40;;;;;;;23.90;28.19;99538.66;4488202;31;20126;-79
2022/07/18 04:41:56;;;;;;;6.93;1.40;;;;;;;23.91;27.94;99540.34;4502699;31;20490;-79
2022/07/18 04:44:21;;;;;;;3.35;1.15;;;;;;;24.07;27.88;99548.63;4488188;31;20092;-79
2022/07/18 04:46:46;;;;;;;4.57;1.20;;;;;;;24.27;27.74;99543.09;4502573;31;20088;-80
2022/07/18 04:49:12;;;;;;;6.53;1.55;;;;;;;24.47;27.06;99541.94;4502595;31;20111;-79
2022/07/18 04:51:37;;;;;;;3.17;1.20;;;;;;;24.44;27.21;99539.56;4502548;31;20107;-79
2022/07/18 04:54:03;;;;;;;5.65;1.20;;;;;;;24.57;27.35;99538.34;4502438;31;20102;-80
2022/07/18 04:56:28;;;;;;;6.90;1.62;;;;;;;24.72;26.91;99544.84;4502348;31;20084;-79
2022/07/18 04:58:53;;;;;;;4.95;1.30;;;;;;;24.65;27.12;99541.97;4502270;31;20100;-78
2022/07/18 05:01:19;;;;;;;3.28;1.12;;;;;;;24.74;27.33;99540.16;4502356;31;20132;-80
2022/07/18 05:03:44;;;;;;;3.83;1.05;;;;;;;24.89;27.10;99541.28;4488061;31;20395;-80
2022/07/18 05:06:10;;;;;;;2.83;1.02;;;;;;;25.18;26.55;99540.12;4502366;31;20373;-78
2022/07/18 05:08:35;;;;;;;4.97;1.50;;;;;;;25.20;26.25;99535.41;4502410;31;20403;-79
2022/07/18 05:11:00;;;;;;;5.15;1.40;;;;;;;25.26;26.54;99539.38;4502291;31;20120;-78
2022/07/18 05:13:26;;;;;;;7.22;1.23;;;;;;;25.19;26.57;99541.84;4502307;31;20131;-82
2022/07/18 05:15:51;;;;;;;4.03;1.27;;;;;;;25.32;26.52;99544.13;4502181;31;20108;-80
2022/07/18 05:18:17;;;;;;;5.12;1.30;;;;;;;25.31;26.62;99545.97;4502178;31;20096;-79
2022/07/18 05:20:42;;;;;;;4.65;1.40;;;;;;;25.33;26.37;99544.97;4502042;31;20217;-79
2022/07/18 05:23:08;;;;;;;6.07;1.10;;;;;;;25.43;26.69;99545.69;4501967;31;20088;-78
2022/07/18 05:25:34;;;;;;;3.80;1.30;;;;;;;25.51;26.26;99546.56;4501959;31;20452;-79
2022/07/18 05:27:59;;;;;;;4.85;1.40;;;;;;;25.60;26.14;99547.47;4501982;31;20153;-80
2022/07/18 05:30:25;;;;;;;5.57;1.40;;;;;;;25.82;25.96;99548.72;4501860;31;20440;-83
2022/07/18 05:32:52;;;;;;;3.47;1.15;;;;;;;25.72;26.10;99547.19;4488750;31;20427;-78
2022/07/18 05:35:17;;;;;;;3.58;1.10;;;;;;;25.76;26.09;99549.38;4503977;31;20418;-80
2022/07/18 05:37:43;;;;;;;5.90;1.45;;;;;;;25.75;26.13;99555.81;4489693;31;20100;-78
2022/07/18 05:40:12;;;;;;;3.90;1.10;;;;;;;25.74;25.80;99550.56;4504052;31;20122;-78
2022/07/18 05:42:37;;;;;;;5.57;1.37;;;;;;;25.97;25.34;99556.25;4503877;31;20088;-79
2022/07/18 05:45:03;;;;;;;5.45;1.45;;;;;;;26.06;25.43;99556.09;4504089;31;20156;-80
2022/07/18 05:47:29;;;;;;;3.22;1.08;;;;;;;26.24;24.97;99552.41;4504175;31;20099;-80
2022/07/18 05:49:54;;;;;;;4.78;1.23;;;;;;;26.21;24.61;99550.91;4504145;31;20119;-79
2022/07/18 05:52:20;;;;;;;7.55;1.40;;;;;;;26.23;25.08;99554.28;4504186;31;20127;-80
2022/07/18 05:54:45;;;;;;;4.57;1.30;;;;;;;26.22;24.88;99549.03;4503943;31;20068;-81
2022/07/18 05:57:11;;;;;;;4.75;1.20;;;;;;;26.41;24.67;99540.62;4489496;31;20189;-82
2022/07/18 05:59:36;;;;;;;3.72;1.20;;;;;;;26.55;24.19;99541.81;4496481;31;20123;-81
2022/07/18 06:02:02;;;;;;;6.72;1.25;;;;;;;26.52;24.79;99544.88;4489564;31;20100;-84
2022/07/18 06:04:27;;;;;;;6.10;1.40;;;;;;;26.51;24.42;99542.34;4496557;31;20136;-86
2022/07/18 06:06:53;;;;;;;3.55;1.20;;;;;;;26.48;24.66;99544.34;4490992;31;20157;-87
2022/07/18 06:09:18;;;;;;;4.90;1.30;;;;;;;26.64;24.66;99548.94;4495781;31;20118;-85
2022/07/18 06:11:44;;;;;;;5.03;1.50;;;;;;;26.75;24.44;99544.22;4492183;31;20110;-85
2022/07/18 06:14:09;;;;;;;3.67;1.37;;;;;;;26.81;24.41;99543.53;4495189;31;20111;-87
2022/07/18 06:16:36;;;;;;;6.72;1.23;;;;;;;26.91;23.99;99543.34;4498191;31;20142;-87
2022/07/18 06:19:02;;;;;;;6.40;1.40;;;;;;;26.84;24.31;99540.50;4490277;31;20143;-84
2022/07/18 06:21:27;;;;;;;3.80;1.10;;;;;;;26.81;24.41;99548.94;4496046;31;20115;-86
2022/07/18 06:23:53;;;;;;;5.60;1.25;;;;;;;27.01;24.17;99549.44;4497436;31;20115;-88
2022/07/18 06:26:18;;;;;;;4.40;1.45;;;;;;;26.92;24.35;99545.06;4496121;31;20347;-84
2022/07/18 06:28:44;;;;;;;6.70;1.40;;;;;;;26.91;24.04;99560.44;4491707;31;20193;-89
2022/07/18 06:31:11;;;;;;;9.50;1.30;;;;;;;27.05;24.32;99550.78;4500258;31;20450;-87
2022/07/18 06:33:37;;;;;;;6.37;1.30;;;;;;;27.06;24.30;99545.22;4491331;31;20106;-85
2022/07/18 06:36:02;;;;;;;5.93;1.20;;;;;;;27.19;24.00;99541.13;4496004;31;20154;-85
2022/07/18 06:38:28;;;;;;;5.30;1.60;;;;;;;27.16;24.28;99542.31;4487200;31;20135;-87
2022/07/18 06:40:53;;;;;;;6.40;1.35;;;;;;;27.35;24.07;99533.00;4499769;31;20114;-85
2022/07/18 06:43:19;;;;;;;7.05;1.75;;;;;;;27.48;23.80;99543.25;4489521;31;20701;-85
2022/07/18 06:45:46;;;;;;;3.85;1.08;;;;;;;27.49;23.82;99542.25;4498099;31;20157;-85
2022/07/18 06:48:13;;;;;;;5.00;1.20;;;;;;;27.63;23.96;99536.09;4494957;31;20092;-85
2022/07/18 06:50:38;;;;;;;5.37;1.70;;;;;;;27.73;23.61;99532.34;4492213;31;20096;-86
2022/07/18 06:53:04;;;;;;;6.72;1.25;;;;;;;27.78;24.00;99532.66;4500182;31;20328;-81
2022/07/18 06:55:29;;;;;;;4.47;1.30;;;;;;;27.80;23.80;99528.75;4490336;31;20152;-82
2022/07/18 06:57:55;;;;;;;4.40;1.30;;;;;;;27.83;23.38;99530.25;4498971;31;20145;-81
2022/07/18 07:00:20;;;;;;;6.05;1.40;;;;;;;27.90;23.42;99527.72;4494041;31;20076;-81
2022/07/18 07:02:47;;;;;;;8.85;1.50;;;;;;;27.88;23.60;99521.59;4498665;31;20470;-81
2022/07/18 07:05:17;;;;;;;7.60;1.50;;;;;;;27.88;23.80;99522.47;4487237;31;20694;-83
2022/07/18 07:07:43;;;;;;;4.28;1.10;;;;;;;27.91;24.00;99523.97;4497906;31;20122;-81
2022/07/18 07:10:09;;;;;;;5.85;1.45;;;;;;;27.87;23.23;99534.28;4494891;31;20081;-81
2022/07/18 07:12:42;;;;;;;6.47;1.42;;;;;;;27.77;23.61;99533.66;4500720;31;20132;-83
2022/07/18 07:15:09;;;;;;;5.80;1.40;;;;;;;27.65;24.04;99525.94;4489167;31;20140;-83
2022/07/18 07:17:35;;;;;;;5.97;1.48;;;;;;;27.66;24.56;99526.75;4489212;31;20127;-81
2022/07/18 07:20:02;;;;;;;4.30;1.25;;;;;;;27.81;23.64;99525.00;4502910;31;20114;-83
2022/07/18 07:22:27;;;;;;;6.30;1.52;;;;;;;27.87;24.11;99523.44;4487759;31;20568;-82
2022/07/18 07:24:53;;;;;;;5.10;1.40;;;;;;;27.79;24.16;99526.22;4502628;31;20104;-82
2022/07/18 07:27:18;;;;;;;6.82;1.30;;;;;;;27.94;23.74;99521.75;4503434;31;20096;-82
2022/07/18 07:29:43;;;;;;;7.20;1.50;;;;;;;28.23;23.27;99521.06;4503413;31;20141;-82
2022/07/18 07:32:09;;;;;;;5.90;1.40;;;;;;;28.26;23.50;99511.75;4503364;31;20079;-82
2022/07/18 07:34:34;;;;;;;5.45;1.20;;;;;;;28.31;23.28;99506.63;4488898;31;20159;-82
2022/07/18 07:37:00;;;;;;;4.68;1.23;;;;;;;28.54;22.84;99501.22;4503455;31;20084;-82
2022/07/18 07:39:26;;;;;;;8.90;1.60;;;;;;;28.62;22.75;99511.16;4503445;31;20084;-82
2022/07/18 07:41:51;;;;;;;7.37;1.33;;;;;;;28.77;22.57;99511.19;4503368;31;20149;-82
2022/07/18 07:44:17;;;;;;;6.28;1.25;;;;;;;28.89;22.45;99511.59;4503389;31;20100;-82
2022/07/18 07:46:42;;;;;;;5.68;1.20;;;;;;;28.99;22.46;99504.00;4503305;31;20099;-82
2022/07/18 07:49:07;;;;;;;4.85;1.33;;;;;;;29.10;21.82;99500.00;4503281;31;20092;-82
2022/07/18 07:51:33;;;;;;;5.95;1.40;;;;;;;29.19;22.18;99498.94;4503296;31;20100;-82
2022/07/18 07:53:58;;;;;;;3.72;1.30;;;;;;;29.38;21.19;99498.34;4502654;31;20092;-82
2022/07/18 07:56:23;;;;;;;7.03;1.45;;;;;;;29.41;21.28;99508.00;4502666;31;20083;-82
2022/07/18 07:58:49;;;;;;;4.82;1.30;;;;;;;29.35;20.60;99514.16;4503244;31;20076;-83
2022/07/18 08:01:17;;;;;;;4.37;1.30;;;;;;;29.26;20.73;99510.69;4503254;31;20464;-82
2022/07/18 08:03:44;;;;;;;3.95;1.42;;;;;;;29.21;20.82;99507.72;4488851;31;20135;-82
2022/07/18 08:06:10;;;;;;;5.30;1.37;;;;;;;29.23;21.12;99505.66;4503234;31;20096;-82
2022/07/18 08:08:35;;;;;;;3.10;1.17;;;;;;;29.21;20.96;99510.44;4503162;31;20114;-82
2022/07/18 08:11:01;;;;;;;4.93;1.20;;;;;;;29.12;20.10;99512.38;4503072;31;20149;-82
2022/07/18 08:13:26;;;;;;;6.22;1.15;;;;;;;28.83;20.98;99513.16;4502925;31;20156;-82
2022/07/18 08:15:52;;;;;;;5.70;1.12;;;;;;;28.85;21.10;99508.38;4503173;31;20148;-82
2022/07/18 08:18:17;;;;;;;4.87;1.40;;;;;;;28.95;20.73;99511.66;4488675;31;20110;-82
2022/07/18 08:20:43;;;;;;;2.92;1.10;;;;;;;29.08;20.46;99505.63;4502717;31;20076;-82
2022/07/18 08:23:10;;;;;;;3.20;1.30;;;;;;;29.26;20.62;99507.16;4488507;31;20107;-83
2022/07/18 08:25:40;;;;;;;6.18;1.10;;;;;;;29.42;20.44;99506.97;4488425;31;20104;-82
2022/07/18 08:28:06;;;;;;;4.10;1.20;;;;;;;29.54;20.20;99505.44;4488470;31;20100;-82
2022/07/18 08:30:33;;;;;;;4.68;1.40;;;;;;;29.71;20.01;99499.78;4488380;31;20088;-82
2022/07/18 08:33:00;;;;;;;3.42;1.08;;;;;;;29.94;20.05;99499.69;4488624;31;20100;-83
2022/07/18 08:35:25;;;;;;;;;;;;;;;30.06;20.05;99505.47;4488943;31;20108;-82
2022/07/18 08:37:51;;;;;;;5.87;1.27;;;;;;;30.28;18.96;99501.72;4502946;31;19996;-82
2022/07/18 08:40:16;;;;;;;5.87;1.37;;;;;;;29.84;19.65;99499.97;4502941;31;20076;-82
2022/07/18 08:42:42;;;;;;;6.30;1.40;;;;;;;29.92;19.93;99504.47;4488478;31;20100;-82
2022/07/18 08:45:08;;;;;;;4.45;1.30;;;;;;;29.32;19.88;99500.97;4488233;31;20080;-82
2022/07/18 08:47:34;;;;;;;3.33;1.10;;;;;;;29.46;20.12;99508.28;4488335;31;20110;-82
2022/07/18 08:50:01;;;;;;;3.97;1.27;;;;;;;29.54;19.91;99508.16;4502474;31;20080;-81
2022/07/18 08:52:28;;;;;;;5.45;1.30;;;;;;;29.50;20.04;99506.03;4502597;31;20190;-82
2022/07/18 08:54:54;;;;;;;4.68;1.40;;;;;;;29.14;20.21;99504.91;4502418;31;20088;-82
2022/07/18 08:57:20;;;;;;;3.83;1.10;;;;;;;29.28;20.30;99507.81;4488203;31;20177;-82
2022/07/18 08:59:45;;;;;;;6.65;1.30;;;;;;;29.28;20.24;99511.34;4502491;31;20080;-82
2022/07/18 09:02:10;;;;;;;5.18;1.40;;;;;;;29.06;20.60;99502.25;4488058;31;20084;-82
2022/07/18 09:04:40;;;;;;;5.20;1.40;;;;;;;28.92;20.62;99505.81;4502454;31;20084;-82
2022/07/18 09:07:08;;;;;;;5.65;1.52;;;;;;;28.79;20.98;99501.84;4502147;31;20435;-82
2022/07/18 09:09:34;;;;;;;6.47;1.25;;;;;;;28.74;21.05;99516.97;4487917;31;20099;-82
2022/07/18 09:12:01;;;;;;;5.40;1.62;;;;;;;28.60;21.13;99513.19;4487952;31;20155;-82
2022/07/18 09:14:34;;;;;;;2.83;1.20;;;;;;;28.44;21.23;99506.84;4502191;31;20111;-82
2022/07/18 09:17:02;;;;;;;4.95;1.30;;;;;;;28.42;21.38;99508.91;4487908;31;20185;-82
2022/07/18 09:19:27;;;;;;;;;;;;;;;28.41;21.67;99507.22;4502333;31;20131;-82
2022/07/18 09:21:52;;;;;;;8.13;1.20;;;;;;;28.50;21.32;99513.41;4502281;31;19990;-82
2022/07/18 09:24:18;;;;;;;4.93;1.33;;;;;;;28.44;21.34;99504.13;4487694;31;20132;-82
2022/07/18 09:26:44;;;;;;;4.82;1.20;;;;;;;28.46;21.35;99500.44;4487652;31;20586;-82
2022/07/18 09:29:16;;;;;;;7.45;1.30;;;;;;;28.64;21.01;99503.66;4502194;31;20088;-82
2022/07/18 09:31:48;;;;;;;4.00;1.20;;;;;;;28.50;21.35;99509.88;4487691;31;20100;-82
2022/07/18 09:34:14;;;;;;;4.95;1.17;;;;;;;28.58;21.04;99504.41;4502007;31;20130;-82
2022/07/18 09:36:54;;;;;;;4.28;1.10;;;;;;;28.57;21.15;99500.03;4487555;31;20455;-82
2022/07/18 09:39:20;;;;;;;6.05;1.25;;;;;;;28.75;20.98;99505.09;4501994;31;20080;-83
2022/07/18 09:41:45;;;;;;;5.97;1.42;;;;;;;28.74;20.85;99501.56;4487446;31;20135;-82
2022/07/18 09:44:15;;;;;;;4.32;1.50;;;;;;;28.70;20.89;99508.34;4487567;31;20179;-82
2022/07/18 09:47:02;;;;;;;5.95;1.40;;;;;;;28.58;20.64;99502.53;4502103;31;20080;-82
2022/07/18 09:49:32;;;;;;;5.90;1.42;;;;;;;28.63;20.91;99502.84;4501839;31;20494;-82
2022/07/18 09:52:16;;;;;;;3.67;1.35;;;;;;;28.52;20.92;99497.84;4487289;31;20478;-82
2022/07/18 09:54:42;;;;;;;7.03;1.40;;;;;;;28.32;21.18;99505.59;4487392;31;20171;-82
2022/07/18 09:57:09;;;;;;;5.82;1.42;;;;;;;28.36;21.09;99504.22;4487334;31;20084;-82
2022/07/18 09:59:36;;;;;;;4.78;1.62;;;;;;;27.98;20.95;99500.59;4501595;31;20389;-82
2022/07/18 10:02:03;;;;;;;5.32;1.12;;;;;;;28.17;21.24;99496.56;4474234;31;20108;-82
2022/07/18 10:04:28;;;;;;;4.62;1.20;;;;;;;28.19;21.12;99494.53;4487508;31;20095;-82
2022/07/18 10:06:54;;;;;;;5.15;1.37;;;;;;;28.25;20.83;99488.38;4487475;31;20442;-83
2022/07/18 10:09:19;;;;;;;3.92;1.30;;;;;;;28.17;21.14;99481.16;4487360;31;20411;-82
2022/07/18 10:11:44;;;;;;;5.80;1.40;;;;;;;28.17;21.21;99486.56;4501676;31;20140;-82
2022/07/18 10:14:11;;;;;;;7.40;1.40;;;;;;;28.20;21.19;99482.66;4501648;31;20089;-82
2022/07/18 10:16:38;;;;;;;4.00;1.37;;;;;;;28.17;20.81;99486.56;4487148;31;20092;-82
2022/07/18 10:19:03;;;;;;;3.75;1.20;;;;;;;28.18;20.78;99487.41;4488638;31;20438;-82
2022/07/18 10:21:30;;;;;;;4.43;1.30;;;;;;;28.28;20.94;99488.03;4504000;31;20159;-82
2022/07/18 10:23:55;;;;;;;4.50;1.25;;;;;;;28.41;20.11;99490.09;4489728;31;20463;-82
2022/07/18 10:26:26;;;;;;;4.78;1.25;;;;;;;28.39;19.92;99486.75;4489584;31;20132;-82
2022/07/18 10:29:00;;;;;;;3.10;1.23;;;;;;;28.27;19.47;99486.31;4503925;31;20446;-82
2022/07/18 10:31:28;;;;;;;6.28;1.20;;;;;;;28.18;19.33;99480.16;4503734;31;20088;-82
2022/07/18 10:34:09;;;;;;;5.03;1.20;;;;;;;27.80;19.33;99476.47;4503427;31;20088;-82
2022/07/18 10:36:51;;;;;;;6.60;1.42;;;;;;;27.85;19.17;99471.34;4503699;31;20507;-82
2022/07/18 10:39:22;;;;;;;4.55;1.15;;;;;;;27.98;19.24;99468.91;4503590;31;20123;-82
2022/07/18 10:41:48;;;;;;;6.37;1.00;;;;;;;28.09;18.62;99462.25;4489695;31;20100;-82
2022/07/18 10:44:23;;;;;;;3.30;0.95;;;;;;;28.17;18.45;99461.34;4503557;31;20144;-82
2022/07/18 10:47:10;;;;;;;3.05;1.10;;;;;;;28.25;18.18;99458.56;4503579;31;20110;-82
2022/07/18 10:49:47;;;;;;;3.20;0.80;;;;;;;28.16;18.04;99474.06;4489212;31;20076;-82
2022/07/18 10:52:25;;;;;;;4.80;1.20;;;;;;;28.11;17.71;99451.25;4503459;31;20097;-82
2022/07/18 10:55:05;;;;;;;4.35;1.20;;;;;;;28.10;18.22;99457.69;4503464;31;20114;-82
2022/07/18 10:57:57;;;;;;;3.45;1.20;;;;;;;28.27;17.57;99447.56;4503552;31;20391;-82
2022/07/18 11:00:22;;;;;;;3.95;1.17;;;;;;;28.24;17.04;99443.38;4438736;32;20085;-82
2022/07/18 11:03:03;;;;;;;7.22;1.33;;;;;;;28.34;17.65;99446.66;4438587;32;20553;-82
2022/07/18 11:05:36;;;;;;;3.08;1.10;;;;;;;28.34;17.79;99445.81;4438647;32;20097;-82
2022/07/18 11:08:01;;;;;;;2.58;0.95;;;;;;;28.41;16.80;99436.78;4425896;32;20168;-82
2022/07/18 11:10:50;;;;;;;5.18;1.20;;;;;;;28.29;17.20;99427.38;4438497;32;20098;-82
2022/07/18 11:13:24;;;;;;;4.05;1.17;;;;;;;28.42;17.80;99422.19;4425643;32;20101;-82
2022/07/18 11:16:08;;;;;;;4.85;1.20;;;;;;;28.46;17.40;99429.97;4438632;32;20129;-82
2022/07/18 11:18:46;;;;;;;3.08;1.00;;;;;;;28.52;17.54;99421.13;4425808;32;20093;-82
2022/07/18 11:21:14;;;;;;;3.87;0.80;;;;;;;28.58;17.39;99417.66;4413822;32;807415;-82
2022/07/18 11:23:44;;;;;;;5.68;1.40;;;;;;;28.54;16.64;99411.75;4438482;32;20120;-82
2022/07/18 11:26:15;;;;;;;3.72;1.00;;;;;;;28.71;16.59;99411.63;4426078;32;20208;-82
2022/07/18 11:28:41;;;;;;;3.75;1.10;;;;;;;28.76;17.03;99403.75;4438536;32;20092;-82
2022/07/18 11:31:09;;;;;;;5.75;1.48;;;;;;;28.77;16.82;99408.97;4438391;32;20345;-82
2022/07/18 11:33:41;;;;;;;6.40;1.40;;;;;;;28.75;16.79;99399.34;4425625;32;20183;-82
2022/07/18 11:36:09;;;;;;;3.42;0.98;;;;;;;28.67;17.36;99400.28;4429001;31;20125;-82